Aviation Digital Data Service (ADDS)

Output produced by METARs form (1212 UTC 15 November 2018)
found at http://www.aviationweather.gov/metar/data/
 
EFET 151150Z AUTO 19007KT 150V220 9999 OVC004 01/01 Q1009
EFHA 151150Z 19009KT 160V230 9999 OVC009 06/04 Q1025
TAF EFHA 151135Z 1512/1514 19008KT 9999 OVC009 
     TEMPO 1512/1514 BKN012
       
EFHK 151150Z 19010KT 9999 BKN023 08/05 Q1029 NOSIG
TAF EFHK 151128Z 1512/1612 21009KT 9999 BKN022 
     PROB30 1514/1518 BKN012 
     BECMG 1518/1520 7000 BKN007 
     TEMPO 1522/1606 4000 BR 
     BECMG 1606/1608 9999 SCT007 BKN012 
     BECMG 1609/1611 SCT012
       
EFIV 151150Z AUTO 22013KT 9999 OVC007 03/02 Q1009
TAF EFIV 151131Z 1512/1519 21011KT 8000 BKN007 
     PROB30 1512/1517 5000 BKN004 
     TEMPO 1517/1519 SCT008
       
EFJO 151150Z AUTO 20007KT 160V220 6000 OVC005 03/03 Q1026
TAF EFJO 151133Z 1512/1521 19008KT 9999 OVC007 
     TEMPO 1512/1514 2500 -RA OVC004 
     TEMPO 1518/1521 OVC004
       
EFJY 151150Z 20005KT 130V260 9999 BKN009 05/04 Q1025
TAF EFJY 151135Z 1512/1612 20008KT 9999 BKN010 
     TEMPO 1512/1516 BKN008 
     BECMG 1516/1518 BKN008 
     TEMPO 1517/1609 3000 -DZ OVC004 
     PROB40 1522/1609 1200 BR 
     BECMG 1609/1611 SCT010 BKN015
       
EFKI 151150Z 21007KT 190V250 8000 -DZ OVC006 04/03 Q1021
TAF EFKI 151133Z 1512/1521 20008KT 9999 OVC006 
     TEMPO 1517/1521 4000 -DZ OVC004
       
EFKE 151150Z AUTO 21008KT 160V240 9999 -RA OVC011 05/03 Q1016
TAF EFKE 151131Z 1512/1521 21010KT 9999 BKN010 
     TEMPO 1517/1519 FEW006 
     BECMG 1519/1521 FEW006
       
EFKT 151150Z AUTO 22010KT 190V250 9999 OVC006 03/02 Q1011
TAF EFKT 151131Z 1512/1521 21012KT 9999 OVC005 
     TEMPO 1512/1516 3000 BR OVC003 
     TEMPO 1516/1521 SCT008
       
EFKK 151150Z 18014KT 3600 -DZ OVC004 07/06 Q1020
TAF EFKK 151135Z 1512/1521 18013KT 9999 BKN005 
     TEMPO 1512/1518 2500 DZ BKN004 
     TEMPO 1519/1521 BKN011
       
EFKU 151150Z 20010KT 9999 OVC013 05/03 Q1025
TAF EFKU 151133Z 1512/1612 20009KT 9999 OVC008 
     TEMPO 1512/1521 6000 -RADZ SCT008 OVC012 
     TEMPO 1521/1524 4000 -DZ OVC004 
     BECMG 1600/1602 4000 BR OVC003 
     TEMPO 1606/1612 9999 NSW BKN008
       
EFKS 151150Z AUTO 22011KT 9999 OVC004 02/02 Q1017
TAF EFKS 150824Z 1509/1513 20011KT 8000 -RADZ OVC002 
     TEMPO 1509/1513 2000 DZRA OVC004
       
EFLP 151150Z AUTO 20006KT 170V250 9999 OVC009 06/05 Q1029
EFMA 151150Z AUTO 19013KT 9999 OVC001 07/07 Q1027
TAF EFMA 151128Z 1512/1521 21013KT 4000 BR OVC001 
     BECMG 1512/1514 8000 NSW BKN003 
     PROB40 1514/1521 2000 BR BKN005
       
EFMI 151150Z AUTO 22006KT 150V260 9999 OVC012 06/04 Q1027
EFOU 151150Z AUTO 20007KT 8000 OVC007/// 05/05 Q1018
TAF EFOU 151131Z 1512/1612 20010KT 8000 BKN008 
     TEMPO 1512/1518 4000 -RADZ BKN010 
     TEMPO 1518/1600 SCT008 
     BECMG 1608/1610 BKN010 
     BECMG 1610/1612 BKN015
       
EFPO 151150Z AUTO 20009KT 170V230 9999 OVC007/// 08/06 Q1025
TAF EFPO 151135Z 1512/1515 21009KT 9999 BKN008 
     TEMPO 1512/1515 SCT009 BKN013
       
EFRO 151150Z 20017KT 9000 -RA SCT002 BKN004 04/04 Q1014
TAF EFRO 151131Z 1512/1612 20016KT 8000 -RA SCT002 OVC005 
     TEMPO 1512/1513 21015G25KT 2500 DZRA BKN002 
     BECMG 1513/1515 3000 BR OVC002 
     TEMPO 1513/1516 8000 NSW BKN004 
     TEMPO 1516/1612 0400 FG BKN001
       
EFSA 151150Z 21006KT 140V270 9999 OVC009 05/04 Q1027
TAF EFSA 151133Z 1512/1519 20006KT 9999 OVC008 
     TEMPO 1512/1519 SCT008 BKN015
       
EFSI 151150Z AUTO 18010KT 130V230 5000 BKN007 OVC009 06/05 Q1022
EFTP 151150Z 19007KT 9999 FEW009 BKN013 07/05 Q1026
TAF EFTP 151135Z 1512/1612 19008KT 9999 BKN009 
     TEMPO 1512/1517 BKN013 
     PROB40 
     TEMPO 1512/1516 FEW010 BKN015 
     TEMPO 1517/1607 3000 -DZ OVC003 
     PROB30 1521/1606 1200 BR 
     BECMG 1607/1609 SCT010 BKN015
       
EFTU 151150Z AUTO 22011KT 9999 OVC012/// 09/07 Q1027
TAF EFTU 151128Z 1512/1612 21009KT 9999 SCT012 
     BECMG 1512/1514 7000 BKN007 
     TEMPO 1514/1604 2500 BR OVC003 
     BECMG 1606/1608 9000 SCT005
       
EFUT 151150Z 19006KT 140V220 9999 BKN020 06/06 Q1029
TAF EFUT 151133Z 1512/1514 20007KT 9999 OVC020 
     TEMPO 1512/1514 BKN011
       
EFVA 151150Z AUTO 21012KT 7000 OVC007/// 08/06 Q1021
TAF EFVA 151135Z 1512/1612 21011KT 8000 BKN007 
     TEMPO 1512/1603 4000 -DZ BKN004 
     BECMG 1605/1607 BKN010 
     BECMG 1607/1609 BKN015 
     TEMPO 1609/1612 BKN013